sensor_id;sensor_type;location;lat;lon;timestamp;P1;durP1;ratioP1;P2;durP2;ratioP2
51228;SDS011;37304;52.216;6.874;2022-09-14T00:04:44;1.98;;;0.50;;
51228;SDS011;37304;52.216;6.874;2022-09-14T00:09:45;2.15;;;0.60;;
51228;SDS011;37304;52.216;6.874;2022-09-14T00:14:45;5.97;;;1.00;;
51228;SDS011;37304;52.216;6.874;2022-09-14T00:19:45;3.63;;;0.90;;
51228;SDS011;37304;52.216;6.874;2022-09-14T00:24:46;3.77;;;0.70;;
51228;SDS011;37304;52.216;6.874;2022-09-14T00:29:46;4.32;;;0.75;;
51228;SDS011;37304;52.216;6.874;2022-09-14T00:34:47;2.97;;;0.90;;
51228;SDS011;37304;52.216;6.874;2022-09-14T00:39:48;4.50;;;0.87;;
51228;SDS011;37304;52.216;6.874;2022-09-14T00:49:48;1.90;;;0.88;;
51228;SDS011;37304;52.216;6.874;2022-09-14T00:54:52;6.93;;;1.10;;
51228;SDS011;37304;52.216;6.874;2022-09-14T00:59:55;3.90;;;1.10;;
51228;SDS011;37304;52.216;6.874;2022-09-14T01:04:56;2.35;;;1.08;;
51228;SDS011;37304;52.216;6.874;2022-09-14T01:15:43;3.80;;;1.13;;
51228;SDS011;37304;52.216;6.874;2022-09-14T01:21:01;0.80;;;0.60;;
51228;SDS011;37304;52.216;6.874;2022-09-14T01:31:33;8.98;;;1.13;;
51228;SDS011;37304;52.216;6.874;2022-09-14T01:36:43;3.28;;;1.05;;
51228;SDS011;37304;52.216;6.874;2022-09-14T01:41:47;3.30;;;1.10;;
51228;SDS011;37304;52.216;6.874;2022-09-14T01:46:52;5.40;;;1.08;;
51228;SDS011;37304;52.216;6.874;2022-09-14T01:52:03;4.47;;;1.10;;
51228;SDS011;37304;52.216;6.874;2022-09-14T02:02:33;2.00;;;1.10;;
51228;SDS011;37304;52.216;6.874;2022-09-14T02:07:45;3.85;;;1.00;;
51228;SDS011;37304;52.216;6.874;2022-09-14T02:12:46;3.92;;;0.93;;
51228;SDS011;37304;52.216;6.874;2022-09-14T02:17:46;2.20;;;1.10;;
51228;SDS011;37304;52.216;6.874;2022-09-14T02:22:47;3.83;;;1.20;;
51228;SDS011;37304;52.216;6.874;2022-09-14T02:27:49;1.83;;;1.08;;
51228;SDS011;37304;52.216;6.874;2022-09-14T02:32:58;3.85;;;1.20;;
51228;SDS011;37304;52.216;6.874;2022-09-14T02:38:25;1.75;;;0.73;;
51228;SDS011;37304;52.216;6.874;2022-09-14T02:43:53;3.95;;;1.00;;
51228;SDS011;37304;52.216;6.874;2022-09-14T02:49:01;3.65;;;1.17;;
51228;SDS011;37304;52.216;6.874;2022-09-14T02:54:19;1.75;;;1.00;;
51228;SDS011;37304;52.216;6.874;2022-09-14T02:59:26;3.90;;;0.90;;
51228;SDS011;37304;52.216;6.874;2022-09-14T03:04:27;2.15;;;0.80;;
51228;SDS011;37304;52.216;6.874;2022-09-14T03:09:28;6.20;;;0.90;;
51228;SDS011;37304;52.216;6.874;2022-09-14T03:14:28;6.80;;;1.20;;
51228;SDS011;37304;52.216;6.874;2022-09-14T03:19:28;3.30;;;1.27;;
51228;SDS011;37304;52.216;6.874;2022-09-14T03:24:29;4.20;;;1.10;;
51228;SDS011;37304;52.216;6.874;2022-09-14T03:29:29;2.85;;;1.30;;
51228;SDS011;37304;52.216;6.874;2022-09-14T03:34:30;3.72;;;1.10;;
51228;SDS011;37304;52.216;6.874;2022-09-14T03:39:30;2.28;;;1.00;;
51228;SDS011;37304;52.216;6.874;2022-09-14T03:44:31;7.50;;;1.37;;
51228;SDS011;37304;52.216;6.874;2022-09-14T03:49:31;4.50;;;1.10;;
51228;SDS011;37304;52.216;6.874;2022-09-14T03:54:31;4.20;;;1.33;;
51228;SDS011;37304;52.216;6.874;2022-09-14T03:59:32;6.50;;;1.58;;
51228;SDS011;37304;52.216;6.874;2022-09-14T04:04:33;5.15;;;1.17;;
51228;SDS011;37304;52.216;6.874;2022-09-14T04:09:33;6.80;;;1.90;;
51228;SDS011;37304;52.216;6.874;2022-09-14T04:14:34;3.83;;;1.40;;
51228;SDS011;37304;52.216;6.874;2022-09-14T04:19:34;4.60;;;1.77;;
51228;SDS011;37304;52.216;6.874;2022-09-14T04:24:36;5.07;;;1.63;;
51228;SDS011;37304;52.216;6.874;2022-09-14T04:29:36;7.03;;;2.17;;
51228;SDS011;37304;52.216;6.874;2022-09-14T04:34:37;6.97;;;2.13;;
51228;SDS011;37304;52.216;6.874;2022-09-14T04:39:37;5.45;;;2.22;;
51228;SDS011;37304;52.216;6.874;2022-09-14T04:44:37;5.10;;;2.30;;
51228;SDS011;37304;52.216;6.874;2022-09-14T04:49:38;6.35;;;2.30;;
51228;SDS011;37304;52.216;6.874;2022-09-14T04:54:38;6.20;;;2.53;;
51228;SDS011;37304;52.216;6.874;2022-09-14T04:59:38;6.87;;;2.40;;
51228;SDS011;37304;52.216;6.874;2022-09-14T05:04:39;4.53;;;1.75;;
51228;SDS011;37304;52.216;6.874;2022-09-14T05:09:39;10.17;;;2.27;;
51228;SDS011;37304;52.216;6.874;2022-09-14T05:14:39;11.80;;;1.98;;
51228;SDS011;37304;52.216;6.874;2022-09-14T05:19:39;4.53;;;2.05;;
51228;SDS011;37304;52.216;6.874;2022-09-14T05:24:40;2.92;;;2.03;;
51228;SDS011;37304;52.216;6.874;2022-09-14T05:29:40;4.22;;;1.83;;
51228;SDS011;37304;52.216;6.874;2022-09-14T05:34:41;4.80;;;1.52;;
51228;SDS011;37304;52.216;6.874;2022-09-14T05:39:41;5.28;;;2.92;;
51228;SDS011;37304;52.216;6.874;2022-09-14T05:44:41;3.80;;;1.83;;
51228;SDS011;37304;52.216;6.874;2022-09-14T05:49:42;7.07;;;1.70;;
51228;SDS011;37304;52.216;6.874;2022-09-14T05:54:42;2.97;;;1.60;;
51228;SDS011;37304;52.216;6.874;2022-09-14T05:59:42;5.53;;;1.40;;
51228;SDS011;37304;52.216;6.874;2022-09-14T06:04:43;5.07;;;0.90;;
51228;SDS011;37304;52.216;6.874;2022-09-14T06:09:43;6.00;;;1.10;;
51228;SDS011;37304;52.216;6.874;2022-09-14T06:14:43;2.95;;;1.23;;
51228;SDS011;37304;52.216;6.874;2022-09-14T06:19:43;3.22;;;1.10;;
51228;SDS011;37304;52.216;6.874;2022-09-14T06:24:44;4.80;;;2.00;;
51228;SDS011;37304;52.216;6.874;2022-09-14T06:29:44;1.75;;;0.60;;
51228;SDS011;37304;52.216;6.874;2022-09-14T06:34:44;5.23;;;1.10;;
51228;SDS011;37304;52.216;6.874;2022-09-14T06:39:45;2.78;;;0.90;;
51228;SDS011;37304;52.216;6.874;2022-09-14T06:44:46;3.10;;;0.80;;
51228;SDS011;37304;52.216;6.874;2022-09-14T06:49:46;5.55;;;1.00;;
51228;SDS011;37304;52.216;6.874;2022-09-14T06:54:48;3.95;;;0.80;;
51228;SDS011;37304;52.216;6.874;2022-09-14T06:59:49;5.10;;;1.07;;
51228;SDS011;37304;52.216;6.874;2022-09-14T07:04:49;7.27;;;0.80;;
51228;SDS011;37304;52.216;6.874;2022-09-14T07:09:49;12.95;;;1.08;;
51228;SDS011;37304;52.216;6.874;2022-09-14T07:14:50;2.72;;;0.75;;
51228;SDS011;37304;52.216;6.874;2022-09-14T07:19:50;2.58;;;0.60;;
51228;SDS011;37304;52.216;6.874;2022-09-14T07:24:50;8.20;;;1.25;;
51228;SDS011;37304;52.216;6.874;2022-09-14T07:29:51;7.03;;;1.37;;
51228;SDS011;37304;52.216;6.874;2022-09-14T07:34:51;3.80;;;1.03;;
51228;SDS011;37304;52.216;6.874;2022-09-14T07:39:52;2.55;;;1.02;;
51228;SDS011;37304;52.216;6.874;2022-09-14T07:44:53;8.20;;;1.60;;
51228;SDS011;37304;52.216;6.874;2022-09-14T07:49:53;2.67;;;1.13;;
51228;SDS011;37304;52.216;6.874;2022-09-14T07:54:53;7.53;;;1.10;;
51228;SDS011;37304;52.216;6.874;2022-09-14T07:59:54;5.30;;;0.90;;
51228;SDS011;37304;52.216;6.874;2022-09-14T08:04:54;1.80;;;0.77;;
51228;SDS011;37304;52.216;6.874;2022-09-14T08:09:54;3.15;;;0.63;;
51228;SDS011;37304;52.216;6.874;2022-09-14T08:14:55;1.90;;;0.90;;
51228;SDS011;37304;52.216;6.874;2022-09-14T08:19:55;12.43;;;1.17;;
51228;SDS011;37304;52.216;6.874;2022-09-14T08:24:56;3.75;;;0.80;;
51228;SDS011;37304;52.216;6.874;2022-09-14T08:29:56;6.33;;;1.00;;
51228;SDS011;37304;52.216;6.874;2022-09-14T08:34:56;5.73;;;1.13;;
51228;SDS011;37304;52.216;6.874;2022-09-14T08:39:57;5.40;;;1.15;;
51228;SDS011;37304;52.216;6.874;2022-09-14T08:44:58;3.23;;;1.47;;
51228;SDS011;37304;52.216;6.874;2022-09-14T08:50:09;5.50;;;1.05;;
51228;SDS011;37304;52.216;6.874;2022-09-14T09:05:42;5.50;;;1.15;;
51228;SDS011;37304;52.216;6.874;2022-09-14T09:10:58;28.63;;;2.58;;
51228;SDS011;37304;52.216;6.874;2022-09-14T09:16:01;8.38;;;1.25;;
51228;SDS011;37304;52.216;6.874;2022-09-14T09:21:05;6.43;;;0.80;;
51228;SDS011;37304;52.216;6.874;2022-09-14T09:36:39;3.83;;;1.10;;
51228;SDS011;37304;52.216;6.874;2022-09-14T09:41:52;2.03;;;1.20;;
51228;SDS011;37304;52.216;6.874;2022-09-14T09:46:57;8.73;;;1.40;;
51228;SDS011;37304;52.216;6.874;2022-09-14T09:52:06;5.88;;;1.50;;
51228;SDS011;37304;52.216;6.874;2022-09-14T10:02:28;7.85;;;2.08;;
51228;SDS011;37304;52.216;6.874;2022-09-14T10:07:31;11.48;;;2.30;;
51228;SDS011;37304;52.216;6.874;2022-09-14T10:12:48;8.05;;;2.17;;
51228;SDS011;37304;52.216;6.874;2022-09-14T10:33:29;7.38;;;2.22;;
51228;SDS011;37304;52.216;6.874;2022-09-14T10:43:51;5.22;;;1.88;;
51228;SDS011;37304;52.216;6.874;2022-09-14T10:49:16;2.00;;;0.90;;
51228;SDS011;37304;52.216;6.874;2022-09-14T10:59:53;12.77;;;1.73;;
51228;SDS011;37304;52.216;6.874;2022-09-14T11:05:09;3.80;;;0.60;;
51228;SDS011;37304;52.216;6.874;2022-09-14T11:15:51;5.18;;;0.93;;
51228;SDS011;37304;52.216;6.874;2022-09-14T11:26:15;6.63;;;0.70;;
51228;SDS011;37304;52.216;6.874;2022-09-14T11:31:24;2.47;;;0.50;;
51228;SDS011;37304;52.216;6.874;2022-09-14T11:36:36;2.70;;;0.60;;
51228;SDS011;37304;52.216;6.874;2022-09-14T11:41:42;2.17;;;0.75;;
51228;SDS011;37304;52.216;6.874;2022-09-14T11:51:59;1.02;;;0.40;;
51228;SDS011;37304;52.216;6.874;2022-09-14T11:57:06;2.80;;;0.68;;
51228;SDS011;37304;52.216;6.874;2022-09-14T12:12:52;2.97;;;0.60;;
51228;SDS011;37304;52.216;6.874;2022-09-14T12:28:39;2.75;;;0.60;;
51228;SDS011;37304;52.216;6.874;2022-09-14T12:39:22;3.35;;;0.63;;
51228;SDS011;37304;52.216;6.874;2022-09-14T12:44:40;4.28;;;0.68;;
51228;SDS011;37304;52.216;6.874;2022-09-14T12:49:41;3.63;;;0.40;;
51228;SDS011;37304;52.216;6.874;2022-09-14T12:54:51;3.87;;;0.60;;
51228;SDS011;37304;52.216;6.874;2022-09-14T13:00:11;1.30;;;0.65;;
51228;SDS011;37304;52.216;6.874;2022-09-14T13:05:16;9.13;;;1.08;;
51228;SDS011;37304;52.216;6.874;2022-09-14T13:10:21;3.15;;;0.60;;
51228;SDS011;37304;52.216;6.874;2022-09-14T13:15:31;7.20;;;0.70;;
51228;SDS011;37304;52.216;6.874;2022-09-14T13:20:35;2.03;;;0.77;;
51228;SDS011;37304;52.216;6.874;2022-09-14T13:25:36;3.78;;;0.60;;
51228;SDS011;37304;52.216;6.874;2022-09-14T13:30:37;3.05;;;0.75;;
51228;SDS011;37304;52.216;6.874;2022-09-14T13:35:50;4.05;;;0.82;;
51228;SDS011;37304;52.216;6.874;2022-09-14T13:40:54;3.47;;;0.82;;
51228;SDS011;37304;52.216;6.874;2022-09-14T13:46:03;1.80;;;0.93;;
51228;SDS011;37304;52.216;6.874;2022-09-14T13:51:08;6.40;;;1.13;;
51228;SDS011;37304;52.216;6.874;2022-09-14T13:56:16;6.22;;;0.80;;
51228;SDS011;37304;52.216;6.874;2022-09-14T14:01:27;5.25;;;0.95;;
51228;SDS011;37304;52.216;6.874;2022-09-14T14:06:29;2.40;;;0.95;;
51228;SDS011;37304;52.216;6.874;2022-09-14T14:11:33;5.55;;;0.90;;
51228;SDS011;37304;52.216;6.874;2022-09-14T14:16:35;2.30;;;0.90;;
51228;SDS011;37304;52.216;6.874;2022-09-14T14:21:35;3.08;;;0.57;;
51228;SDS011;37304;52.216;6.874;2022-09-14T14:26:36;3.10;;;0.87;;
51228;SDS011;37304;52.216;6.874;2022-09-14T14:31:36;7.10;;;1.10;;
51228;SDS011;37304;52.216;6.874;2022-09-14T14:36:36;4.93;;;0.70;;
51228;SDS011;37304;52.216;6.874;2022-09-14T14:41:37;3.60;;;0.80;;
51228;SDS011;37304;52.216;6.874;2022-09-14T14:46:37;2.73;;;0.93;;
51228;SDS011;37304;52.216;6.874;2022-09-14T14:51:39;1.83;;;0.70;;
51228;SDS011;37304;52.216;6.874;2022-09-14T14:56:40;1.85;;;0.52;;
51228;SDS011;37304;52.216;6.874;2022-09-14T15:01:42;5.82;;;0.95;;
51228;SDS011;37304;52.216;6.874;2022-09-14T15:06:43;5.38;;;0.82;;
51228;SDS011;37304;52.216;6.874;2022-09-14T15:11:44;4.28;;;0.85;;
51228;SDS011;37304;52.216;6.874;2022-09-14T15:16:46;2.97;;;0.88;;
51228;SDS011;37304;52.216;6.874;2022-09-14T15:21:47;7.95;;;1.02;;
51228;SDS011;37304;52.216;6.874;2022-09-14T15:26:47;6.50;;;0.80;;
51228;SDS011;37304;52.216;6.874;2022-09-14T15:31:47;6.00;;;0.80;;
51228;SDS011;37304;52.216;6.874;2022-09-14T15:36:49;3.37;;;0.80;;
51228;SDS011;37304;52.216;6.874;2022-09-14T15:41:52;4.00;;;0.70;;
51228;SDS011;37304;52.216;6.874;2022-09-14T15:46:54;3.92;;;0.93;;
51228;SDS011;37304;52.216;6.874;2022-09-14T15:51:55;5.60;;;0.90;;
51228;SDS011;37304;52.216;6.874;2022-09-14T15:56:56;4.45;;;0.75;;
51228;SDS011;37304;52.216;6.874;2022-09-14T16:01:59;3.78;;;0.90;;
51228;SDS011;37304;52.216;6.874;2022-09-14T16:06:59;2.55;;;0.80;;
51228;SDS011;37304;52.216;6.874;2022-09-14T16:12:00;5.93;;;0.90;;
51228;SDS011;37304;52.216;6.874;2022-09-14T16:17:01;4.18;;;0.85;;
51228;SDS011;37304;52.216;6.874;2022-09-14T16:22:01;4.55;;;0.50;;
51228;SDS011;37304;52.216;6.874;2022-09-14T16:27:02;3.83;;;0.80;;
51228;SDS011;37304;52.216;6.874;2022-09-14T16:32:02;5.83;;;1.10;;
51228;SDS011;37304;52.216;6.874;2022-09-14T16:37:03;3.07;;;0.87;;
51228;SDS011;37304;52.216;6.874;2022-09-14T16:42:03;5.00;;;1.10;;
51228;SDS011;37304;52.216;6.874;2022-09-14T16:47:04;3.75;;;0.82;;
51228;SDS011;37304;52.216;6.874;2022-09-14T16:52:04;3.40;;;1.10;;
51228;SDS011;37304;52.216;6.874;2022-09-14T16:57:05;4.37;;;1.00;;
51228;SDS011;37304;52.216;6.874;2022-09-14T17:02:05;3.50;;;1.00;;
51228;SDS011;37304;52.216;6.874;2022-09-14T17:07:07;3.10;;;1.10;;
51228;SDS011;37304;52.216;6.874;2022-09-14T17:12:08;3.42;;;0.98;;
51228;SDS011;37304;52.216;6.874;2022-09-14T17:17:08;4.95;;;1.00;;
51228;SDS011;37304;52.216;6.874;2022-09-14T17:22:09;5.53;;;1.07;;
51228;SDS011;37304;52.216;6.874;2022-09-14T17:27:09;5.55;;;1.10;;
51228;SDS011;37304;52.216;6.874;2022-09-14T17:32:10;2.88;;;1.17;;
51228;SDS011;37304;52.216;6.874;2022-09-14T17:37:10;3.78;;;1.38;;
51228;SDS011;37304;52.216;6.874;2022-09-14T17:42:10;2.07;;;1.03;;
51228;SDS011;37304;52.216;6.874;2022-09-14T17:47:11;4.13;;;1.23;;
51228;SDS011;37304;52.216;6.874;2022-09-14T17:52:11;4.68;;;0.98;;
51228;SDS011;37304;52.216;6.874;2022-09-14T17:57:11;5.88;;;1.40;;
51228;SDS011;37304;52.216;6.874;2022-09-14T18:02:11;8.65;;;1.45;;
51228;SDS011;37304;52.216;6.874;2022-09-14T18:07:12;5.20;;;1.60;;
51228;SDS011;37304;52.216;6.874;2022-09-14T18:12:13;6.55;;;1.98;;
51228;SDS011;37304;52.216;6.874;2022-09-14T18:17:15;7.30;;;2.55;;
51228;SDS011;37304;52.216;6.874;2022-09-14T18:22:15;7.68;;;3.22;;
51228;SDS011;37304;52.216;6.874;2022-09-14T18:27:15;8.13;;;2.60;;
51228;SDS011;37304;52.216;6.874;2022-09-14T18:32:16;5.87;;;2.77;;
51228;SDS011;37304;52.216;6.874;2022-09-14T18:37:16;7.07;;;3.27;;
51228;SDS011;37304;52.216;6.874;2022-09-14T18:42:17;10.35;;;3.58;;
51228;SDS011;37304;52.216;6.874;2022-09-14T18:47:17;7.80;;;3.50;;
51228;SDS011;37304;52.216;6.874;2022-09-14T18:52:20;8.50;;;3.35;;
51228;SDS011;37304;52.216;6.874;2022-09-14T18:57:20;7.97;;;3.35;;
51228;SDS011;37304;52.216;6.874;2022-09-14T19:02:21;10.53;;;3.43;;
51228;SDS011;37304;52.216;6.874;2022-09-14T19:07:21;8.33;;;4.03;;
51228;SDS011;37304;52.216;6.874;2022-09-14T19:12:21;10.63;;;4.60;;
51228;SDS011;37304;52.216;6.874;2022-09-14T19:17:22;9.18;;;4.45;;
51228;SDS011;37304;52.216;6.874;2022-09-14T19:22:22;13.30;;;4.77;;
51228;SDS011;37304;52.216;6.874;2022-09-14T19:27:23;12.73;;;4.88;;
51228;SDS011;37304;52.216;6.874;2022-09-14T19:32:23;12.20;;;4.97;;
51228;SDS011;37304;52.216;6.874;2022-09-14T19:37:24;9.90;;;4.10;;
51228;SDS011;37304;52.216;6.874;2022-09-14T19:42:24;8.87;;;4.37;;
51228;SDS011;37304;52.216;6.874;2022-09-14T19:47:24;14.98;;;4.65;;
51228;SDS011;37304;52.216;6.874;2022-09-14T19:52:25;14.13;;;4.88;;
51228;SDS011;37304;52.216;6.874;2022-09-14T19:57:25;12.00;;;4.60;;
51228;SDS011;37304;52.216;6.874;2022-09-14T20:02:25;11.63;;;4.60;;
51228;SDS011;37304;52.216;6.874;2022-09-14T20:07:26;11.73;;;5.28;;
51228;SDS011;37304;52.216;6.874;2022-09-14T20:12:27;8.80;;;4.55;;
51228;SDS011;37304;52.216;6.874;2022-09-14T20:17:27;9.38;;;4.50;;
51228;SDS011;37304;52.216;6.874;2022-09-14T20:22:27;10.93;;;4.90;;
51228;SDS011;37304;52.216;6.874;2022-09-14T20:27:27;10.98;;;4.18;;
51228;SDS011;37304;52.216;6.874;2022-09-14T20:32:28;9.33;;;3.77;;
51228;SDS011;37304;52.216;6.874;2022-09-14T20:37:29;9.55;;;3.38;;
51228;SDS011;37304;52.216;6.874;2022-09-14T20:42:29;5.80;;;3.13;;
51228;SDS011;37304;52.216;6.874;2022-09-14T20:47:30;10.25;;;3.28;;
51228;SDS011;37304;52.216;6.874;2022-09-14T20:52:30;5.83;;;2.83;;
51228;SDS011;37304;52.216;6.874;2022-09-14T20:57:30;6.57;;;3.10;;
51228;SDS011;37304;52.216;6.874;2022-09-14T21:02:31;4.70;;;2.30;;
51228;SDS011;37304;52.216;6.874;2022-09-14T21:07:31;8.00;;;2.63;;
51228;SDS011;37304;52.216;6.874;2022-09-14T21:12:32;6.95;;;2.15;;
51228;SDS011;37304;52.216;6.874;2022-09-14T21:17:32;4.25;;;2.08;;
51228;SDS011;37304;52.216;6.874;2022-09-14T21:22:33;4.80;;;1.67;;
51228;SDS011;37304;52.216;6.874;2022-09-14T21:27:33;3.13;;;1.30;;
51228;SDS011;37304;52.216;6.874;2022-09-14T21:32:33;1.87;;;0.80;;
51228;SDS011;37304;52.216;6.874;2022-09-14T21:37:34;3.07;;;1.00;;
51228;SDS011;37304;52.216;6.874;2022-09-14T21:42:34;5.88;;;1.10;;
51228;SDS011;37304;52.216;6.874;2022-09-14T21:47:34;3.00;;;1.00;;
51228;SDS011;37304;52.216;6.874;2022-09-14T21:52:39;3.22;;;0.82;;
51228;SDS011;37304;52.216;6.874;2022-09-14T21:57:40;2.65;;;0.75;;
51228;SDS011;37304;52.216;6.874;2022-09-14T22:02:40;2.00;;;0.87;;
51228;SDS011;37304;52.216;6.874;2022-09-14T22:07:41;3.97;;;0.97;;
51228;SDS011;37304;52.216;6.874;2022-09-14T22:12:41;1.48;;;0.60;;
51228;SDS011;37304;52.216;6.874;2022-09-14T22:17:42;3.78;;;1.42;;
51228;SDS011;37304;52.216;6.874;2022-09-14T22:22:43;2.33;;;0.77;;
51228;SDS011;37304;52.216;6.874;2022-09-14T22:27:43;1.00;;;0.80;;
51228;SDS011;37304;52.216;6.874;2022-09-14T22:32:43;3.20;;;1.30;;
51228;SDS011;37304;52.216;6.874;2022-09-14T22:37:44;3.33;;;1.60;;
51228;SDS011;37304;52.216;6.874;2022-09-14T22:42:44;2.63;;;1.20;;
51228;SDS011;37304;52.216;6.874;2022-09-14T22:47:45;2.88;;;1.55;;
51228;SDS011;37304;52.216;6.874;2022-09-14T22:52:46;3.67;;;1.40;;
51228;SDS011;37304;52.216;6.874;2022-09-14T22:57:46;2.83;;;1.73;;
51228;SDS011;37304;52.216;6.874;2022-09-14T23:02:46;3.58;;;1.92;;
51228;SDS011;37304;52.216;6.874;2022-09-14T23:07:47;4.72;;;2.20;;
51228;SDS011;37304;52.216;6.874;2022-09-14T23:12:47;6.50;;;2.33;;
51228;SDS011;37304;52.216;6.874;2022-09-14T23:17:47;3.90;;;2.10;;
51228;SDS011;37304;52.216;6.874;2022-09-14T23:22:48;9.23;;;3.00;;
51228;SDS011;37304;52.216;6.874;2022-09-14T23:27:48;5.07;;;2.80;;
51228;SDS011;37304;52.216;6.874;2022-09-14T23:32:48;5.45;;;2.05;;
51228;SDS011;37304;52.216;6.874;2022-09-14T23:37:49;4.18;;;2.42;;
51228;SDS011;37304;52.216;6.874;2022-09-14T23:42:49;4.90;;;2.07;;
51228;SDS011;37304;52.216;6.874;2022-09-14T23:47:49;3.70;;;2.30;;
51228;SDS011;37304;52.216;6.874;2022-09-14T23:52:50;5.57;;;2.22;;
51228;SDS011;37304;52.216;6.874;2022-09-14T23:57:51;4.28;;;1.90;;
